Time;durP1;ratioP1;P1;durP2;ratioP2;P2;SDS_P1;SDS_P2;PMS_P1;PMS_P2;Temp;Humidity;BMP_temperature;BMP_pressure;BME280_temperature;BME280_humidity;BME280_pressure;Samples;Min_cycle;Max_cycle;Signal;HPM_P1;HPM_P2
2022/01/08 00:01:59;;;;;;;15.65;4.65;;;4.60;99.90;;;;;;4995017;28;20166;-77
2022/01/08 00:04:25;;;;;;;10.40;5.00;;;4.80;99.90;;;;;;4995094;28;20174;-85
2022/01/08 00:06:51;;;;;;;7.90;2.75;;;4.80;99.90;;;;;;4995608;28;20169;-78
2022/01/08 00:09:16;;;;;;;4.28;2.58;;;4.70;99.90;;;;;;4995360;28;20215;-78
2022/01/08 00:11:42;;;;;;;3.42;2.13;;;4.70;99.90;;;;;;4995399;28;20201;-84
2022/01/08 00:14:10;;;;;;;5.22;2.22;;;4.60;99.90;;;;;;4995344;28;20734;-78
2022/01/08 00:16:37;;;;;;;11.10;1.85;;;4.50;99.90;;;;;;4994983;28;20169;-84
2022/01/08 00:19:04;;;;;;;1.60;1.50;;;4.50;99.90;;;;;;4994971;28;20680;-84
2022/01/08 00:21:29;;;;;;;3.60;1.70;;;4.50;99.90;;;;;;4994855;28;20212;-78
2022/01/08 00:23:55;;;;;;;5.10;2.10;;;4.50;99.90;;;;;;4995083;28;20204;-77
2022/01/08 00:26:21;;;;;;;2.92;1.40;;;4.50;99.90;;;;;;4994771;28;20277;-78
2022/01/08 00:28:46;;;;;;;3.08;1.95;;;4.50;99.90;;;;;;4995295;28;20682;-78
2022/01/08 00:31:12;;;;;;;4.22;1.98;;;4.70;99.90;;;;;;4994990;28;20614;-83
2022/01/08 00:33:38;;;;;;;5.32;1.52;;;4.50;99.90;;;;;;4994693;28;20256;-79
2022/01/08 00:36:07;;;;;;;2.38;1.45;;;4.50;99.90;;;;;;4994806;28;20622;-78
2022/01/08 00:38:34;;;;;;;4.05;1.23;;;4.50;99.90;;;;;;4994583;28;20232;-78
2022/01/08 00:41:00;;;;;;;8.48;1.40;;;4.50;99.90;;;;;;5009657;28;20197;-84
2022/01/08 00:43:25;;;;;;;2.75;1.70;;;4.60;99.90;;;;;;4994804;28;20177;-84
2022/01/08 00:45:51;;;;;;;3.55;1.67;;;4.60;99.90;;;;;;4994477;28;20204;-84
2022/01/08 00:48:17;;;;;;;5.07;1.80;;;4.60;99.90;;;;;;4994527;28;20173;-84
2022/01/08 00:50:42;;;;;;;8.00;1.50;;;4.60;99.90;;;;;;4994589;28;20689;-78
2022/01/08 00:53:08;;;;;;;2.50;1.27;;;4.60;99.90;;;;;;4994867;28;20538;-81
2022/01/08 00:55:34;;;;;;;2.85;1.65;;;4.50;99.90;;;;;;4994556;28;20257;-84
2022/01/08 00:57:59;;;;;;;2.83;1.30;;;4.60;99.90;;;;;;4994222;28;20177;-78
2022/01/08 01:00:25;;;;;;;1.48;1.20;;;4.40;99.90;;;;;;4993647;28;20193;-78
2022/01/08 01:02:53;;;;;;;2.17;1.27;;;4.40;99.90;;;;;;4993429;28;20177;-78
2022/01/08 01:05:19;;;;;;;2.92;1.50;;;4.40;99.90;;;;;;4994311;28;20246;-78
2022/01/08 01:07:44;;;;;;;1.83;1.52;;;4.40;99.90;;;;;;4993603;28;20560;-86
2022/01/08 01:10:10;;;;;;;2.22;0.95;;;4.30;99.90;;;;;;4994026;28;20269;-78
2022/01/08 01:12:36;;;;;;;4.75;1.65;;;4.50;99.90;;;;;;4994458;28;20170;-85
2022/01/08 01:15:03;;;;;;;2.33;1.42;;;4.50;99.90;;;;;;4994315;28;20199;-85
2022/01/08 01:17:28;;;;;;;2.08;1.42;;;4.50;99.90;;;;;;4993708;28;20169;-77
2022/01/08 01:19:54;;;;;;;6.78;1.73;;;4.50;99.90;;;;;;4994264;28;20196;-78
2022/01/08 01:22:23;;;;;;;6.55;2.45;;;4.50;99.90;;;;;;4993960;28;20173;-84
2022/01/08 01:24:50;;;;;;;1.40;1.25;;;4.40;99.90;;;;;;4994014;28;20197;-84
2022/01/08 01:30:10;;;;;;;3.80;2.17;;;4.50;99.90;;;;;;4992544;28;20197;-78
2022/01/08 01:41:15;;;;;;;6.70;3.05;;;4.60;99.90;;;;;;4993657;28;20212;-78
2022/01/08 01:49:07;;;;;;;4.53;2.65;;;4.30;99.90;;;;;;4993632;28;20239;-85
2022/01/08 01:51:33;;;;;;;5.93;1.95;;;4.40;99.90;;;;;;4993678;28;20529;-78
2022/01/08 01:53:58;;;;;;;8.85;3.63;;;4.40;99.90;;;;;;4993564;28;20173;-84
2022/01/08 01:56:24;;;;;;;8.50;2.92;;;4.50;99.90;;;;;;4993285;28;20219;-77
2022/01/08 01:58:51;;;;;;;3.47;2.45;;;4.40;99.90;;;;;;4993504;28;20199;-81
2022/01/08 02:01:16;;;;;;;7.85;3.80;;;4.20;99.90;;;;;;4993598;28;20165;-80
2022/01/08 02:03:42;;;;;;;5.70;3.15;;;4.30;99.90;;;;;;4993405;28;20688;-78
2022/01/08 02:06:09;;;;;;;8.32;4.30;;;4.40;99.90;;;;;;4993491;28;20739;-79
2022/01/08 02:08:35;;;;;;;17.23;3.83;;;4.20;99.90;;;;;;4993365;28;20535;-84
2022/01/08 02:11:01;;;;;;;10.27;4.32;;;4.30;99.90;;;;;;4993409;28;20193;-78
2022/01/08 02:13:28;;;;;;;9.73;5.05;;;4.30;99.90;;;;;;4993217;28;20177;-78
2022/01/08 02:15:55;;;;;;;10.20;5.30;;;4.40;99.90;;;;;;5007378;28;20645;-79
2022/01/08 02:18:25;;;;;;;9.18;5.05;;;4.30;99.90;;;;;;4993416;28;20157;-78
2022/01/08 02:20:55;;;;;;;11.60;5.85;;;4.20;99.90;;;;;;4993198;28;20200;-79
2022/01/08 02:23:21;;;;;;;13.25;5.57;;;4.30;99.90;;;;;;4993503;28;20161;-78
2022/01/08 02:25:46;;;;;;;6.28;4.90;;;4.30;99.90;;;;;;4992906;28;20661;-79
2022/01/08 02:28:12;;;;;;;8.25;5.32;;;4.30;99.90;;;;;;4993177;28;20267;-78
2022/01/08 02:30:38;;;;;;;10.02;5.10;;;4.30;99.90;;;;;;4992866;28;20235;-77
2022/01/08 02:33:03;;;;;;;16.48;5.05;;;4.30;99.90;;;;;;4993401;28;20743;-78
2022/01/08 02:35:29;;;;;;;11.23;4.63;;;4.20;99.90;;;;;;4993260;28;20251;-77
2022/01/08 02:37:55;;;;;;;8.02;4.55;;;4.10;99.90;;;;;;4993181;28;20180;-78
2022/01/08 02:40:21;;;;;;;10.13;5.47;;;4.10;99.90;;;;;;4992701;28;20197;-77
2022/01/08 02:43:01;;;;;;;7.20;4.53;;;4.10;99.90;;;;;;4992874;28;20608;-78
2022/01/08 02:45:28;;;;;;;16.50;4.82;;;4.20;99.90;;;;;;4992958;28;20215;-81
2022/01/08 02:47:55;;;;;;;4.53;3.95;;;4.20;99.90;;;;;;4992645;28;20181;-78
2022/01/08 02:50:21;;;;;;;8.70;4.55;;;4.20;99.90;;;;;;4992697;28;20272;-84
2022/01/08 02:52:48;;;;;;;8.93;4.75;;;4.20;99.90;;;;;;4992932;28;20571;-78
2022/01/08 02:55:16;;;;;;;9.13;4.93;;;4.20;99.90;;;;;;4992945;28;20161;-78
2022/01/08 02:57:42;;;;;;;14.52;5.03;;;4.10;99.90;;;;;;4993016;28;20585;-77
2022/01/08 03:00:09;;;;;;;6.35;3.83;;;4.10;99.90;;;;;;4993473;28;20260;-78
2022/01/08 03:02:48;;;;;;;8.20;3.90;;;4.20;99.90;;;;;;4992477;28;20296;-78
2022/01/08 03:05:14;;;;;;;8.65;4.07;;;4.30;99.90;;;;;;4992762;28;20273;-78
2022/01/08 03:07:41;;;;;;;8.75;4.30;;;4.20;99.90;;;;;;4992847;28;20561;-77
2022/01/08 03:10:10;;;;;;;11.13;4.57;;;4.30;99.90;;;;;;4992599;28;20677;-84
2022/01/08 03:12:43;;;;;;;9.88;4.13;;;4.40;99.90;;;;;;4993057;28;20657;-78
2022/01/08 03:15:14;;;;;;;14.00;4.93;;;4.30;99.90;;;;;;4992544;28;20251;-78
2022/01/08 03:17:40;;;;;;;9.63;3.90;;;4.30;99.90;;;;;;4992566;28;20173;-77
2022/01/08 03:20:10;;;;;;;9.38;4.70;;;4.40;99.90;;;;;;4992392;28;20211;-78
2022/01/08 03:22:37;;;;;;;8.65;5.18;;;4.40;99.90;;;;;;4992397;28;20192;-78
2022/01/08 03:25:04;;;;;;;7.25;4.88;;;4.20;99.90;;;;;;4992087;28;20197;-85
2022/01/08 03:27:30;;;;;;;14.85;4.90;;;4.10;99.90;;;;;;4995745;28;20172;-78
2022/01/08 03:29:55;;;;;;;14.23;5.85;;;4.20;99.90;;;;;;4995977;28;20182;-85
2022/01/08 03:32:21;;;;;;;6.82;5.72;;;4.30;99.90;;;;;;4996011;28;20257;-85
2022/01/08 03:34:47;;;;;;;12.10;6.13;;;4.30;99.90;;;;;;4995872;28;20228;-85
2022/01/08 03:37:13;;;;;;;15.70;5.82;;;4.30;99.90;;;;;;4995397;28;20161;-77
2022/01/08 03:39:39;;;;;;;7.55;5.63;;;4.20;99.90;;;;;;4995578;28;20193;-78
2022/01/08 03:42:04;;;;;;;11.57;5.68;;;4.10;99.90;;;;;;4995570;28;20169;-78
2022/01/08 03:44:30;;;;;;;8.68;5.85;;;4.00;99.90;;;;;;4995612;28;20174;-78
2022/01/08 03:47:11;;;;;;;9.45;6.72;;;4.00;99.90;;;;;;4995709;28;20690;-78
2022/01/08 03:49:36;;;;;;;6.90;5.80;;;3.90;99.90;;;;;;4995577;28;20269;-77
2022/01/08 03:52:03;;;;;;;11.93;6.20;;;3.70;99.90;;;;;;4995449;28;20197;-78
2022/01/08 03:54:29;;;;;;;16.77;6.82;;;3.80;99.90;;;;;;5010761;28;20173;-77
2022/01/08 03:56:54;;;;;;;8.57;6.65;;;3.90;99.90;;;;;;4995306;28;20195;-84
2022/01/08 03:59:20;;;;;;;8.23;6.25;;;3.80;99.90;;;;;;4995528;28;20181;-78
2022/01/08 04:01:45;;;;;;;14.95;6.68;;;3.90;99.90;;;;;;4995414;28;20657;-78
2022/01/08 04:04:11;;;;;;;15.40;7.20;;;4.00;99.90;;;;;;4995777;28;20178;-79
2022/01/08 04:06:37;;;;;;;7.40;5.57;;;3.80;99.90;;;;;;4995532;28;20288;-77
2022/01/08 04:09:03;;;;;;;9.95;7.38;;;3.90;99.90;;;;;;4995213;28;20176;-77
2022/01/08 04:11:28;;;;;;;9.15;6.68;;;4.00;99.90;;;;;;4995165;28;20158;-77
2022/01/08 04:13:55;;;;;;;11.32;6.15;;;3.70;99.90;;;;;;4995415;28;20162;-77
2022/01/08 04:16:28;;;;;;;14.13;7.25;;;3.80;99.90;;;;;;4995289;28;20166;-77
2022/01/08 04:18:54;;;;;;;14.82;5.95;;;3.80;99.90;;;;;;4995222;28;20590;-78
2022/01/08 04:23:54;;;;;;;14.73;6.82;;;3.70;99.90;;;;;;4995166;28;20622;-77
2022/01/08 04:26:22;;;;;;;8.68;6.88;;;3.70;99.90;;;;;;4994978;28;20213;-77
2022/01/08 04:28:48;;;;;;;20.42;7.55;;;3.70;99.90;;;;;;4995121;28;20176;-78
2022/01/08 04:31:14;;;;;;;10.02;7.53;;;3.80;99.90;;;;;;4995002;28;20252;-78
2022/01/08 04:33:39;;;;;;;12.65;7.15;;;3.90;99.90;;;;;;4995032;28;20248;-77
2022/01/08 04:36:05;;;;;;;15.60;6.80;;;3.80;99.90;;;;;;4994955;28;20177;-78
2022/01/08 04:38:32;;;;;;;11.88;7.78;;;3.70;99.90;;;;;;4993919;28;20162;-77
2022/01/08 04:40:58;;;;;;;14.98;8.48;;;3.80;99.90;;;;;;4994775;28;20642;-85
2022/01/08 04:43:23;;;;;;;11.13;7.10;;;3.70;99.90;;;;;;4994652;28;20200;-79
2022/01/08 04:45:51;;;;;;;12.93;7.60;;;3.70;99.90;;;;;;4994593;28;20216;-78
2022/01/08 04:48:17;;;;;;;12.75;7.03;;;3.70;99.90;;;;;;4994461;28;20181;-85
2022/01/08 04:50:42;;;;;;;17.73;8.23;;;3.70;99.90;;;;;;4994253;28;20193;-78
2022/01/08 04:53:08;;;;;;;24.02;8.52;;;3.80;99.90;;;;;;4994288;28;20757;-77
2022/01/08 04:55:34;;;;;;;13.45;7.18;;;3.90;99.90;;;;;;4993901;28;20622;-77
2022/01/08 04:57:59;;;;;;;10.18;8.70;;;4.10;99.90;;;;;;4994658;28;20204;-78
2022/01/08 05:00:25;;;;;;;16.50;8.00;;;4.10;99.90;;;;;;4994654;28;20193;-78
2022/01/08 05:02:50;;;;;;;17.88;9.27;;;4.10;99.90;;;;;;4994311;28;20523;-77
2022/01/08 05:05:16;;;;;;;13.68;8.70;;;4.00;99.90;;;;;;4994358;28;20215;-78
2022/01/08 05:07:42;;;;;;;14.52;8.50;;;3.80;99.90;;;;;;4994253;28;20169;-77
2022/01/08 05:10:08;;;;;;;11.98;8.57;;;3.90;99.90;;;;;;4993885;28;20562;-85
2022/01/08 05:12:34;;;;;;;13.15;8.85;;;4.00;99.90;;;;;;4994002;28;20173;-85
2022/01/08 05:15:01;;;;;;;11.40;7.97;;;4.10;99.90;;;;;;4994301;28;20176;-78
2022/01/08 05:17:32;;;;;;;13.45;8.40;;;4.20;99.90;;;;;;4994144;28;20173;-82
2022/01/08 05:20:01;;;;;;;10.13;8.10;;;4.40;99.90;;;;;;4994089;28;20189;-78
2022/01/08 05:22:29;;;;;;;13.52;8.68;;;4.30;99.90;;;;;;4993986;28;20177;-77
2022/01/08 05:24:56;;;;;;;12.10;7.93;;;4.30;99.90;;;;;;4993844;28;20201;-78
2022/01/08 05:27:22;;;;;;;11.02;8.00;;;4.40;99.90;;;;;;4993873;28;20685;-77
2022/01/08 05:29:50;;;;;;;16.75;8.98;;;4.30;99.90;;;;;;4993499;28;20686;-77
2022/01/08 05:32:17;;;;;;;15.65;8.88;;;4.30;99.90;;;;;;4993683;28;20158;-78
2022/01/08 05:34:51;;;;;;;11.75;8.50;;;4.20;99.90;;;;;;4993596;28;20552;-78
2022/01/08 05:37:18;;;;;;;11.35;8.55;;;4.00;99.90;;;;;;4993792;28;20224;-84
2022/01/08 05:39:44;;;;;;;17.92;9.35;;;3.80;99.90;;;;;;4993578;28;20197;-78
2022/01/08 05:42:10;;;;;;;16.10;8.85;;;3.80;99.90;;;;;;4993490;28;20189;-78
2022/01/08 05:44:36;;;;;;;9.00;7.95;;;3.90;99.90;;;;;;4993545;28;20523;-78
2022/01/08 05:47:02;;;;;;;12.18;8.88;;;3.90;99.90;;;;;;4993588;28;20165;-78
2022/01/08 05:49:28;;;;;;;14.07;9.95;;;3.80;99.90;;;;;;4993513;28;20189;-79
2022/01/08 05:51:53;;;;;;;16.25;8.20;;;3.80;99.90;;;;;;4993287;28;20542;-77
2022/01/08 05:54:19;;;;;;;16.35;9.60;;;3.90;99.90;;;;;;4993617;28;20230;-77
2022/01/08 05:56:44;;;;;;;12.27;9.05;;;4.10;99.90;;;;;;4993350;28;20169;-77
2022/01/08 05:59:10;;;;;;;17.92;9.48;;;4.10;99.90;;;;;;4993393;28;20193;-77
2022/01/08 06:01:36;;;;;;;21.25;8.70;;;4.10;99.90;;;;;;4993206;28;20169;-78
2022/01/08 06:04:02;;;;;;;18.75;10.45;;;4.20;99.90;;;;;;4992907;28;20565;-77
2022/01/08 06:06:28;;;;;;;12.93;9.50;;;4.00;99.90;;;;;;4993118;28;20673;-78
2022/01/08 06:08:53;;;;;;;10.80;8.10;;;3.90;99.90;;;;;;4993349;28;20169;-78
2022/01/08 06:11:19;;;;;;;18.58;10.05;;;3.80;99.90;;;;;;4993391;28;20240;-77
2022/01/08 06:13:45;;;;;;;20.65;10.15;;;3.80;99.90;;;;;;4993386;28;20170;-78
2022/01/08 06:16:10;;;;;;;14.68;9.60;;;3.80;99.90;;;;;;4993285;28;20187;-81
2022/01/08 06:18:37;;;;;;;13.18;7.88;;;3.70;99.90;;;;;;4993305;28;20657;-77
2022/01/08 06:21:04;;;;;;;18.83;9.38;;;3.50;99.90;;;;;;4993097;28;20193;-84
2022/01/08 06:23:29;;;;;;;15.35;9.15;;;3.60;99.90;;;;;;4993032;28;20525;-78
2022/01/08 06:25:55;;;;;;;14.27;9.77;;;3.70;99.90;;;;;;4992792;28;20204;-78
2022/01/08 06:28:21;;;;;;;12.80;8.70;;;3.70;99.90;;;;;;4992909;28;20161;-77
2022/01/08 06:30:47;;;;;;;20.88;8.95;;;3.70;99.90;;;;;;4992739;28;20193;-83
2022/01/08 06:33:14;;;;;;;16.27;9.60;;;3.70;99.90;;;;;;4992946;28;20195;-84
2022/01/08 06:35:39;;;;;;;18.77;8.18;;;3.70;99.90;;;;;;4992805;28;20248;-84
2022/01/08 06:38:05;;;;;;;21.60;8.07;;;3.80;99.90;;;;;;4992527;28;20243;-77
2022/01/08 06:40:31;;;;;;;14.45;9.48;;;3.80;99.90;;;;;;4992573;28;20717;-77
2022/01/08 06:42:56;;;;;;;28.67;9.15;;;3.80;99.90;;;;;;5007762;28;20638;-77
2022/01/08 06:45:22;;;;;;;18.20;8.20;;;3.90;99.90;;;;;;4992834;28;20239;-77
2022/01/08 06:47:47;;;;;;;17.65;8.02;;;3.90;99.90;;;;;;4992297;28;20272;-78
2022/01/08 06:50:13;;;;;;;18.60;8.57;;;4.00;99.90;;;;;;4992485;28;20549;-77
2022/01/08 06:52:39;;;;;;;17.17;8.80;;;4.00;99.90;;;;;;4992788;28;20636;-78
2022/01/08 06:55:06;;;;;;;9.93;7.93;;;4.00;99.90;;;;;;4992831;28;20154;-78
2022/01/08 06:57:32;;;;;;;21.52;10.15;;;4.20;99.90;;;;;;4992607;28;20264;-77
2022/01/08 06:59:57;;;;;;;22.52;8.82;;;4.30;99.90;;;;;;4992959;28;20256;-84
2022/01/08 07:02:23;;;;;;;14.57;9.00;;;4.30;99.90;;;;;;4995702;28;20177;-81
2022/01/08 07:04:48;;;;;;;17.55;7.43;;;4.00;99.90;;;;;;4996329;28;20178;-77
2022/01/08 07:07:14;;;;;;;25.85;8.45;;;4.10;99.90;;;;;;4996436;28;20227;-78
2022/01/08 07:09:39;;;;;;;19.13;7.68;;;4.20;99.90;;;;;;4996260;28;20217;-77
2022/01/08 07:12:05;;;;;;;19.20;10.73;;;4.10;99.90;;;;;;4995989;28;20239;-83
2022/01/08 07:14:31;;;;;;;18.42;8.23;;;4.10;99.90;;;;;;4996251;28;20170;-77
2022/01/08 07:16:57;;;;;;;18.58;8.25;;;4.30;99.90;;;;;;4996134;28;20173;-78
2022/01/08 07:19:23;;;;;;;16.73;8.25;;;4.50;99.90;;;;;;4996134;28;20561;-77
2022/01/08 07:21:49;;;;;;;11.75;7.47;;;4.30;99.90;;;;;;4995774;28;20181;-77
2022/01/08 07:24:15;;;;;;;14.80;7.43;;;4.30;99.90;;;;;;4996107;28;20248;-77
2022/01/08 07:26:40;;;;;;;15.45;7.30;;;4.20;99.90;;;;;;4995659;28;20615;-77
2022/01/08 07:29:06;;;;;;;22.15;8.02;;;4.00;99.90;;;;;;5010687;28;20177;-77
2022/01/08 07:31:31;;;;;;;18.10;7.07;;;4.00;99.90;;;;;;4995608;28;20202;-78
2022/01/08 07:33:57;;;;;;;13.68;7.00;;;4.10;99.90;;;;;;4995648;28;20634;-77
2022/01/08 07:36:23;;;;;;;11.65;7.30;;;4.20;99.90;;;;;;4995779;28;20165;-77
2022/01/08 07:38:49;;;;;;;16.08;6.90;;;4.20;99.90;;;;;;4995542;28;20240;-78
2022/01/08 07:41:14;;;;;;;15.00;6.78;;;4.20;99.90;;;;;;4995725;28;20190;-78
2022/01/08 07:43:40;;;;;;;11.80;7.18;;;4.20;99.90;;;;;;4995869;28;20170;-78
2022/01/08 07:46:06;;;;;;;10.63;6.97;;;4.10;99.90;;;;;;4995703;28;20251;-85
2022/01/08 07:48:31;;;;;;;10.27;5.97;;;4.10;99.90;;;;;;4996178;28;20177;-78
2022/01/08 07:50:58;;;;;;;15.05;6.63;;;4.20;99.90;;;;;;4995178;28;20216;-78
2022/01/08 07:53:24;;;;;;;29.25;5.55;;;4.30;99.90;;;;;;4995217;28;20169;-79
2022/01/08 07:55:49;;;;;;;11.18;6.25;;;4.10;99.90;;;;;;4995391;28;20241;-80
2022/01/08 07:58:20;;;;;;;7.45;5.32;;;4.30;99.90;;;;;;4995074;28;20253;-79
2022/01/08 08:00:50;;;;;;;12.18;5.65;;;4.50;99.90;;;;;;4995177;28;20232;-82
2022/01/08 08:03:16;;;;;;;6.85;4.78;;;4.60;99.90;;;;;;4995417;28;20192;-79
2022/01/08 08:05:42;;;;;;;11.32;5.07;;;4.60;99.90;;;;;;4995375;28;20251;-79
2022/01/08 08:08:08;;;;;;;6.75;4.15;;;4.70;99.90;;;;;;4995310;28;20551;-84
2022/01/08 08:10:33;;;;;;;8.32;4.93;;;4.60;99.90;;;;;;4995124;28;20201;-78
2022/01/08 08:13:00;;;;;;;7.97;3.78;;;4.60;99.90;;;;;;4995105;28;20165;-79
2022/01/08 08:15:25;;;;;;;9.38;4.88;;;4.50;99.90;;;;;;4995127;28;20256;-79
2022/01/08 08:17:53;;;;;;;8.05;4.03;;;4.70;99.90;;;;;;4994989;28;20277;-78
2022/01/08 08:20:19;;;;;;;4.53;3.65;;;4.40;99.90;;;;;;4994798;28;20197;-80
2022/01/08 08:22:45;;;;;;;8.25;3.95;;;4.50;99.90;;;;;;4995087;28;20211;-78
2022/01/08 08:25:11;;;;;;;8.00;3.45;;;4.60;99.90;;;;;;4994288;28;20205;-77
2022/01/08 08:27:37;;;;;;;9.48;3.72;;;4.50;99.90;;;;;;4994771;28;20219;-78
2022/01/08 08:30:04;;;;;;;11.27;4.50;;;4.50;99.90;;;;;;5009334;28;20578;-83
2022/01/08 08:32:29;;;;;;;13.57;4.45;;;4.60;99.90;;;;;;4994856;28;20532;-79
2022/01/08 08:34:55;;;;;;;8.13;3.92;;;4.70;99.90;;;;;;4994684;28;20177;-81
2022/01/08 08:37:21;;;;;;;12.88;4.85;;;4.80;99.90;;;;;;4994634;28;20169;-81
2022/01/08 08:39:47;;;;;;;8.43;3.80;;;4.80;99.90;;;;;;4994250;28;20189;-77
2022/01/08 08:42:13;;;;;;;4.40;3.40;;;4.90;99.90;;;;;;4994156;28;20654;-77
2022/01/08 08:44:38;;;;;;;6.43;5.47;;;4.90;99.90;;;;;;4993873;28;20169;-81
2022/01/08 08:47:04;;;;;;;9.90;5.55;;;4.90;99.90;;;;;;4994465;28;20169;-82
2022/01/08 08:49:30;;;;;;;17.95;4.45;;;4.90;99.90;;;;;;4994335;28;20642;-77
2022/01/08 08:51:55;;;;;;;5.55;3.45;;;4.90;99.90;;;;;;4994300;28;20531;-76
2022/01/08 08:54:21;;;;;;;7.38;4.78;;;4.90;99.90;;;;;;4994010;28;20165;-77
2022/01/08 08:56:47;;;;;;;13.82;6.32;;;5.10;99.90;;;;;;4993815;28;20569;-76
2022/01/08 08:59:12;;;;;;;16.63;4.55;;;5.40;99.90;;;;;;4993924;28;20189;-77
2022/01/08 09:01:39;;;;;;;6.88;3.72;;;5.50;99.90;;;;;;4994094;28;20236;-76
2022/01/08 09:04:05;;;;;;;10.38;3.92;;;5.60;99.90;;;;;;4994332;28;20251;-76
2022/01/08 09:06:31;;;;;;;11.02;3.72;;;5.40;99.90;;;;;;4993997;28;20340;-76
2022/01/08 09:08:57;;;;;;;24.52;4.28;;;5.50;99.90;;;;;;4993604;28;20169;-77
2022/01/08 09:11:22;;;;;;;4.88;3.63;;;5.50;99.90;;;;;;5008518;28;20173;-75
2022/01/08 09:13:48;;;;;;;8.77;3.97;;;5.50;99.90;;;;;;4993639;28;20176;-76
2022/01/08 09:16:14;;;;;;;10.57;3.78;;;5.50;99.90;;;;;;4993501;28;20173;-76
2022/01/08 09:18:41;;;;;;;5.72;3.28;;;5.60;99.90;;;;;;4993754;28;20180;-77
2022/01/08 09:21:07;;;;;;;12.88;3.80;;;5.40;99.90;;;;;;4993618;28;20190;-83
2022/01/08 09:23:33;;;;;;;4.75;3.33;;;5.40;99.90;;;;;;4993360;28;20169;-77
2022/01/08 09:26:00;;;;;;;3.15;2.85;;;5.30;99.90;;;;;;4993429;28;20263;-76
2022/01/08 09:28:26;;;;;;;7.75;2.78;;;5.30;99.90;;;;;;4993441;28;20170;-76
2022/01/08 09:30:52;;;;;;;6.90;2.60;;;5.40;99.90;;;;;;4993362;28;20276;-76
2022/01/08 09:33:18;;;;;;;6.65;2.85;;;5.30;99.90;;;;;;4993368;28;20169;-83
2022/01/08 09:35:44;;;;;;;5.95;4.00;;;5.50;99.90;;;;;;4993307;28;20244;-81
2022/01/08 09:38:09;;;;;;;6.90;3.42;;;5.60;99.90;;;;;;4993201;28;20174;-76
2022/01/08 09:40:35;;;;;;;7.45;3.88;;;5.70;99.90;;;;;;4992471;28;20181;-78
2022/01/08 09:43:02;;;;;;;9.55;3.50;;;5.80;99.90;;;;;;4993349;28;20171;-76
2022/01/08 09:45:28;;;;;;;5.68;3.70;;;5.70;99.90;;;;;;4993084;28;20208;-76
2022/01/08 09:47:53;;;;;;;7.30;3.55;;;5.60;99.90;;;;;;4993069;28;20236;-77
2022/01/08 09:50:19;;;;;;;4.80;3.60;;;5.60;99.90;;;;;;4992920;28;20279;-77
2022/01/08 09:52:45;;;;;;;4.30;2.95;;;5.30;99.90;;;;;;4993200;28;20215;-77
2022/01/08 09:55:10;;;;;;;4.05;3.03;;;5.50;99.90;;;;;;4993276;28;20181;-77
2022/01/08 09:57:36;;;;;;;7.45;3.08;;;5.70;99.90;;;;;;5007939;28;20169;-76
2022/01/08 10:00:10;;;;;;;6.57;3.47;;;5.80;99.90;;;;;;4992787;28;20676;-77
2022/01/08 10:02:35;;;;;;;7.50;2.80;;;5.80;99.90;;;;;;4993086;28;20653;-76
2022/01/08 10:05:09;;;;;;;6.07;3.10;;;5.70;99.90;;;;;;4992841;28;20236;-77
2022/01/08 10:07:34;;;;;;;7.22;2.53;;;5.90;99.90;;;;;;4993155;28;20615;-76
2022/01/08 10:10:03;;;;;;;6.55;4.00;;;5.90;99.90;;;;;;4992897;28;20236;-77
2022/01/08 10:12:52;;;;;;;5.78;2.92;;;5.80;99.90;;;;;;4992537;28;20178;-76
2022/01/08 10:18:30;;;;;;;2.20;1.98;;;5.90;99.90;;;;;;4992794;28;20232;-76
2022/01/08 10:20:56;;;;;;;3.15;2.20;;;5.80;99.90;;;;;;4992586;28;20216;-76
2022/01/08 10:23:32;;;;;;;8.50;3.40;;;5.90;99.90;;;;;;4993243;28;20610;-77
2022/01/08 10:26:00;;;;;;;2.33;1.67;;;5.80;99.90;;;;;;4992657;28;20241;-89
2022/01/08 10:28:42;;;;;;;2.65;1.88;;;5.60;99.90;;;;;;4992665;28;20161;-78
2022/01/08 10:31:10;;;;;;;3.42;3.13;;;5.60;99.90;;;;;;4988445;28;20198;-80
2022/01/08 10:33:37;;;;;;;3.90;2.10;;;5.60;99.90;;;;;;4987145;28;20284;-77
2022/01/08 10:36:04;;;;;;;5.70;2.47;;;5.60;99.90;;;;;;4974168;28;20216;-77
2022/01/08 10:38:30;;;;;;;4.22;2.00;;;5.70;99.90;;;;;;4977548;28;20173;-77
2022/01/08 10:40:57;;;;;;;6.45;2.95;;;5.60;99.90;;;;;;4976844;28;20190;-77
2022/01/08 10:43:33;;;;;;;3.05;2.08;;;5.60;99.90;;;;;;4977387;28;20162;-78
2022/01/08 10:46:16;;;;;;;9.10;2.60;;;5.80;99.90;;;;;;4976945;28;20714;-76
2022/01/08 10:48:50;;;;;;;4.32;2.42;;;5.90;99.90;;;;;;4977001;28;20193;-76
2022/01/08 10:51:26;;;;;;;3.95;2.22;;;6.00;99.90;;;;;;4976881;28;20220;-78
2022/01/08 10:54:05;;;;;;;2.50;1.88;;;6.00;99.90;;;;;;4977221;28;20184;-77
2022/01/08 10:56:42;;;;;;;3.33;2.63;;;6.20;99.90;;;;;;4976534;28;20510;-77
2022/01/08 10:59:08;;;;;;;6.97;2.42;;;6.10;99.90;;;;;;4977125;28;20236;-77
2022/01/08 11:01:43;;;;;;;4.60;2.50;;;6.20;99.90;;;;;;4977074;28;20174;-77
2022/01/08 11:04:11;;;;;;;5.20;2.33;;;6.00;99.90;;;;;;4976864;28;20279;-77
2022/01/08 11:07:01;;;;;;;5.22;2.10;;;5.80;99.90;;;;;;4976894;28;20206;-80
2022/01/08 11:09:28;;;;;;;6.13;2.20;;;5.90;99.90;;;;;;4976426;28;20213;-76
2022/01/08 11:11:56;;;;;;;6.65;2.10;;;5.80;99.90;;;;;;4976375;28;20602;-83
2022/01/08 11:14:47;;;;;;;4.80;2.22;;;5.90;99.90;;;;;;4976902;28;20630;-77
2022/01/08 11:17:20;;;;;;;3.22;2.42;;;5.90;99.90;;;;;;4976520;28;20318;-78
2022/01/08 11:19:49;;;;;;;5.68;2.47;;;5.90;99.90;;;;;;4975713;28;20197;-81
2022/01/08 11:22:18;;;;;;;4.78;2.83;;;5.70;99.90;;;;;;4991578;28;20701;-81
2022/01/08 11:24:53;;;;;;;3.63;2.30;;;5.90;99.90;;;;;;4975977;28;20228;-77
2022/01/08 11:27:26;;;;;;;12.38;2.75;;;6.00;99.90;;;;;;4976178;28;20634;-77
2022/01/08 11:30:25;;;;;;;7.57;2.42;;;6.10;99.90;;;;;;4976439;28;20205;-77
2022/01/08 11:32:56;;;;;;;2.35;1.70;;;6.00;99.90;;;;;;4975132;28;20648;-77
2022/01/08 11:35:24;;;;;;;5.63;2.05;;;6.10;99.90;;;;;;4976155;28;20170;-78
2022/01/08 11:37:51;;;;;;;3.83;2.45;;;6.20;99.90;;;;;;4976371;28;20180;-77
2022/01/08 11:40:21;;;;;;;6.47;2.75;;;6.30;99.90;;;;;;4975917;28;20192;-77
2022/01/08 11:42:47;;;;;;;3.50;2.65;;;6.20;99.90;;;;;;4976252;28;20530;-77
2022/01/08 11:45:20;;;;;;;4.05;2.17;;;6.10;99.90;;;;;;4975845;28;20528;-76
2022/01/08 11:47:52;;;;;;;2.53;2.00;;;6.10;99.90;;;;;;4974973;28;20247;-77
2022/01/08 11:50:33;;;;;;;5.90;2.10;;;6.10;99.90;;;;;;4975928;28;20182;-78
2022/01/08 11:53:19;;;;;;;5.47;2.55;;;6.20;99.90;;;;;;4976211;28;20174;-78
2022/01/08 11:55:54;;;;;;;3.03;2.00;;;6.30;99.90;;;;;;4975767;28;20189;-78
2022/01/08 11:58:23;;;;;;;7.57;2.47;;;6.10;99.90;;;;;;4975844;28;20169;-78
2022/01/08 12:00:58;;;;;;;5.63;2.13;;;6.20;99.90;;;;;;4975700;28;20248;-79
2022/01/08 12:03:30;;;;;;;3.08;1.98;;;6.10;99.90;;;;;;4975822;28;20257;-79
2022/01/08 12:05:56;;;;;;;2.55;1.50;;;6.10;99.90;;;;;;4990644;28;20217;-78
2022/01/08 12:08:56;;;;;;;3.47;2.00;;;6.10;99.90;;;;;;4975480;28;20177;-83
2022/01/08 12:11:22;;;;;;;6.38;1.98;;;6.10;99.90;;;;;;4975267;28;20243;-79
2022/01/08 12:13:49;;;;;;;2.10;1.75;;;6.00;99.90;;;;;;4975788;28;20203;-79
2022/01/08 12:16:34;;;;;;;8.00;2.05;;;6.00;99.90;;;;;;4975405;28;20181;-83
2022/01/08 12:19:02;;;;;;;3.15;2.13;;;5.90;99.90;;;;;;4975335;28;20172;-81
2022/01/08 12:21:40;;;;;;;1.88;1.67;;;5.80;99.90;;;;;;4975129;28;20179;-79
2022/01/08 12:24:27;;;;;;;3.35;1.63;;;5.70;99.90;;;;;;4975199;28;20161;-79
2022/01/08 12:26:54;;;;;;;3.92;2.17;;;5.80;99.90;;;;;;4974958;28;20604;-78
2022/01/08 12:29:39;;;;;;;5.80;1.73;;;5.80;99.90;;;;;;4974930;28;20240;-79
2022/01/08 12:32:33;;;;;;;2.45;1.48;;;5.90;99.90;;;;;;4975395;28;20181;-79
2022/01/08 12:35:18;;;;;;;1.60;1.50;;;6.00;99.90;;;;;;4975160;28;20170;-79
2022/01/08 12:37:47;;;;;;;5.38;2.33;;;6.00;99.90;;;;;;4975207;28;20170;-80
2022/01/08 12:40:50;;;;;;;1.90;1.70;;;6.00;99.90;;;;;;4989760;28;20234;-79
2022/01/08 12:43:34;;;;;;;1.63;1.52;;;6.00;99.90;;;;;;4974740;28;20322;-79
2022/01/08 12:46:22;;;;;;;2.58;1.48;;;6.10;99.90;;;;;;4974775;28;20224;-79
2022/01/08 12:49:14;;;;;;;1.60;1.48;;;6.10;99.90;;;;;;4989539;28;20704;-79
2022/01/08 12:51:48;;;;;;;4.25;1.63;;;6.10;99.90;;;;;;4973048;28;20517;-78
2022/01/08 12:54:16;;;;;;;2.35;2.00;;;6.10;99.90;;;;;;4974658;28;20181;-79
2022/01/08 12:56:49;;;;;;;2.20;2.00;;;6.10;99.90;;;;;;4974183;28;20165;-79
2022/01/08 12:59:15;;;;;;;2.63;1.50;;;6.20;99.90;;;;;;4973892;28;20201;-79
2022/01/08 13:01:45;;;;;;;2.65;1.55;;;6.10;99.90;;;;;;4974611;28;20162;-79
2022/01/08 13:04:16;;;;;;;3.85;2.08;;;6.10;99.90;;;;;;4974251;28;20174;-78
2022/01/08 13:06:42;;;;;;;1.42;1.30;;;6.00;99.90;;;;;;4974229;28;20682;-77
2022/01/08 13:09:08;;;;;;;1.88;1.75;;;6.10;99.90;;;;;;4974611;28;20201;-77
2022/01/08 13:11:37;;;;;;;3.95;2.40;;;6.10;99.90;;;;;;4974422;28;20169;-78
2022/01/08 13:14:04;;;;;;;11.93;4.72;;;6.20;99.90;;;;;;4974118;28;20635;-78
2022/01/08 13:16:32;;;;;;;15.32;8.20;;;6.20;99.90;;;;;;4974140;28;20182;-79
2022/01/08 13:19:06;;;;;;;10.23;5.68;;;6.30;99.90;;;;;;4974427;28;20633;-79
2022/01/08 13:21:43;;;;;;;8.27;4.68;;;6.10;99.90;;;;;;4974505;28;20272;-79